LFRC/CER METAR and TAF weather

Enter ICAO airport designator
Station Type Date Time Source
LFRC METAR 2021/05/12 01:30 UTC NOAA

LFRC 120130Z AUTO 21006KT CAVOK 07/06 Q1010


Station Type Date Time Source
LFRC Decoded METAR 2021/05/12 01:30 UTC NOAA

Cherbourg / Maupertus, France (LFRC) 49-39N 001-28W 139M
May 11, 2021 - 09:30 PM EDT / 2021.05.12 0130 UTC
Wind: from the SSW (210 degrees) at 7 MPH (6 KT):0
Visibility: greater than 7 mile(s):0
Temperature: 44 F (7 C)
Dew Point: 42 F (6 C)
Relative Humidity: 93%
Pressure (altimeter): 29.83 in. Hg (1010 hPa)
ob: LFRC 120130Z AUTO 21006KT CAVOK 07/06 Q1010
cycle: 1

Station Type Date Time Source
LFRC TAF 2008/10/12 17:07 UTC NOAA

TAF
AMD LFRC 121707Z 121721 CNL

Example: see airport list